createdAt,value
2023-08-08T00:01:06.025Z,101110.53
2023-08-08T00:02:11.239Z,101113.41
2023-08-08T00:03:19.160Z,101070.66
2023-08-08T00:04:24.306Z,101146.69
2023-08-08T00:05:33.761Z,101201.22
2023-08-08T00:06:40.431Z,101232.81
2023-08-08T00:07:51.864Z,101251.19
2023-08-08T00:08:56.818Z,101228.06
2023-08-08T00:10:05.443Z,101240.72
2023-08-08T00:11:10.265Z,101229.22
2023-08-08T00:12:18.498Z,101224.47
2023-08-08T00:13:23.801Z,101212.16
2023-08-08T00:14:31.469Z,101135.69
2023-08-08T00:15:36.471Z,101194.75
2023-08-08T00:16:44.266Z,101177.72
2023-08-08T00:17:50.035Z,101033.56
2023-08-08T00:18:58.255Z,101192.34
2023-08-08T00:20:03.155Z,101206.00
2023-08-08T00:21:11.611Z,101200.28
2023-08-08T00:22:16.992Z,101204.63
2023-08-08T00:23:27.180Z,101194.03
2023-08-08T00:24:34.865Z,101199.59
2023-08-08T00:25:42.794Z,101201.63
2023-08-08T00:26:48.053Z,101206.19
2023-08-08T00:27:56.775Z,101135.81
2023-08-08T00:29:02.094Z,101208.44
2023-08-08T00:30:10.855Z,101218.88
2023-08-08T00:31:18.952Z,101232.50
2023-08-08T00:32:26.948Z,101237.75
2023-08-08T00:33:31.898Z,101225.75
2023-08-08T00:34:40.205Z,101229.28
2023-08-08T00:35:46.553Z,101214.50
2023-08-08T00:36:55.842Z,101237.50
2023-08-08T00:38:01.000Z,101242.66
2023-08-08T00:39:11.698Z,101241.41
2023-08-08T00:40:16.544Z,101254.56
2023-08-08T00:41:27.600Z,101250.19
2023-08-08T00:42:32.515Z,101245.34
2023-08-08T00:43:40.392Z,101250.66
2023-08-08T00:44:45.211Z,101247.19
2023-08-08T00:45:53.291Z,101241.09
2023-08-08T00:46:58.526Z,101234.09
2023-08-08T00:48:07.273Z,101229.81
2023-08-08T00:49:12.230Z,101218.38
2023-08-08T00:50:20.384Z,101230.75
2023-08-08T00:51:27.594Z,101187.56
2023-08-08T00:52:35.978Z,101221.84
2023-08-08T00:53:40.883Z,101225.88
2023-08-08T00:54:53.629Z,101210.84
2023-08-08T00:56:00.568Z,101208.53
2023-08-08T00:57:09.104Z,101209.38
2023-08-08T00:58:14.826Z,101173.78
2023-08-08T00:59:24.687Z,101188.50
2023-08-08T01:00:30.039Z,101166.59
2023-08-08T01:01:38.671Z,101159.91
2023-08-08T01:02:44.519Z,101167.50
2023-08-08T01:03:54.080Z,101171.03
2023-08-08T01:04:59.506Z,101152.03
2023-08-08T01:06:18.006Z,101151.53
2023-08-08T01:07:32.879Z,101133.16
2023-08-08T01:08:48.353Z,101129.81
2023-08-08T01:10:08.919Z,101124.06
2023-08-08T01:11:18.302Z,101121.41
2023-08-08T01:12:26.040Z,101127.66
2023-08-08T01:13:37.206Z,101121.44
2023-08-08T01:14:45.170Z,101103.25
2023-08-08T01:15:55.637Z,101101.06
2023-08-08T01:17:05.082Z,101107.28
2023-08-08T01:18:16.522Z,101108.94
2023-08-08T01:19:30.425Z,101113.69
2023-08-08T01:20:39.825Z,101098.84
2023-08-08T01:21:50.945Z,101092.78
2023-08-08T01:23:18.172Z,101079.13
2023-08-08T01:24:30.935Z,101092.28
2023-08-08T01:25:40.950Z,101081.81
2023-08-08T01:26:46.771Z,101080.81
2023-08-08T01:27:55.723Z,101065.97
2023-08-08T01:29:02.265Z,101080.13
2023-08-08T01:30:12.822Z,101085.50
2023-08-08T01:31:18.923Z,101079.25
2023-08-08T01:32:26.491Z,101088.34
2023-08-08T01:33:31.821Z,101068.31
2023-08-08T01:34:41.439Z,101058.69
2023-08-08T01:35:52.719Z,101051.94
2023-08-08T01:37:05.407Z,101055.31
2023-08-08T01:38:19.570Z,101039.13
2023-08-08T01:39:33.113Z,101044.00
2023-08-08T01:40:39.043Z,101040.13
2023-08-08T01:41:49.118Z,101038.63
2023-08-08T01:42:56.104Z,101021.09
2023-08-08T01:44:05.553Z,101026.63
2023-08-08T01:45:11.875Z,101021.09
2023-08-08T01:46:20.569Z,101019.25
2023-08-08T01:47:28.330Z,101011.81
2023-08-08T01:48:36.491Z,100988.41
2023-08-08T01:49:41.314Z,100975.94
2023-08-08T01:50:48.959Z,100964.50
2023-08-08T01:51:54.266Z,100952.38
2023-08-08T01:53:02.828Z,100973.09
2023-08-08T01:54:08.250Z,100919.19
2023-08-08T01:55:19.134Z,100985.38
2023-08-08T01:56:24.126Z,100987.75
2023-08-08T01:57:32.146Z,100982.91
2023-08-08T01:58:37.764Z,100973.81
2023-08-08T01:59:45.943Z,100979.53
2023-08-08T02:00:51.141Z,100962.50
2023-08-08T02:01:59.372Z,100981.22
2023-08-08T02:03:05.019Z,100985.09
2023-08-08T02:04:12.639Z,100976.53
2023-08-08T02:05:17.872Z,100990.66
2023-08-08T02:06:27.338Z,100998.22
2023-08-08T02:07:32.262Z,100993.66
2023-08-08T02:08:41.826Z,101014.19
2023-08-08T02:09:47.867Z,101001.88
2023-08-08T02:10:58.785Z,101021.25
2023-08-08T02:12:03.742Z,101001.69
2023-08-08T02:13:11.501Z,101010.97
2023-08-08T02:14:16.395Z,101012.63
2023-08-08T02:15:24.123Z,101010.28
2023-08-08T02:16:29.467Z,101010.91
2023-08-08T02:17:37.449Z,100993.41
2023-08-08T02:18:43.174Z,100994.59
2023-08-08T02:19:50.688Z,100982.97
2023-08-08T02:20:55.527Z,100981.81
2023-08-08T02:22:03.684Z,100995.81
2023-08-08T02:23:08.758Z,100976.94
2023-08-08T02:24:18.084Z,101002.06
2023-08-08T02:25:23.280Z,100998.81
2023-08-08T02:26:33.709Z,100992.75
2023-08-08T02:27:38.898Z,100991.38
2023-08-08T02:28:50.133Z,100983.13
2023-08-08T02:29:55.738Z,100980.25
2023-08-08T02:31:03.710Z,100978.75
2023-08-08T02:32:09.588Z,100975.72
2023-08-08T02:33:17.154Z,100952.81
2023-08-08T02:34:21.974Z,100965.13
2023-08-08T02:35:29.638Z,100947.28
2023-08-08T02:36:35.139Z,100945.78
2023-08-08T02:37:42.847Z,100939.72
2023-08-08T02:38:48.426Z,100959.59
2023-08-08T02:39:56.322Z,100971.06
2023-08-08T02:41:02.121Z,100995.81
2023-08-08T02:42:12.955Z,100995.09
2023-08-08T02:43:18.448Z,101003.63
2023-08-08T02:44:25.962Z,101010.19
2023-08-08T02:45:30.884Z,100977.19
2023-08-08T02:46:39.344Z,100997.56
2023-08-08T02:47:45.096Z,100991.25
2023-08-08T02:48:52.762Z,100988.03
2023-08-08T02:49:57.818Z,100996.97
2023-08-08T02:51:05.576Z,101000.78
2023-08-08T02:52:10.937Z,101002.34
2023-08-08T02:53:18.572Z,100964.59
2023-08-08T02:54:26.261Z,100983.47
2023-08-08T02:55:34.148Z,100963.09
2023-08-08T02:56:39.023Z,100955.22
2023-08-08T02:57:49.489Z,100930.31
2023-08-08T02:58:57.123Z,100931.66
2023-08-08T03:00:05.872Z,100942.94
2023-08-08T03:01:16.998Z,100935.72
2023-08-08T03:02:26.688Z,100896.97
2023-08-08T03:03:31.985Z,100936.91
2023-08-08T03:04:39.683Z,100937.75
2023-08-08T03:05:47.615Z,100882.41
2023-08-08T03:06:57.812Z,100933.31
2023-08-08T03:08:03.660Z,100944.78
2023-08-08T03:09:11.688Z,100958.41
2023-08-08T03:10:17.979Z,100887.69
2023-08-08T03:11:26.099Z,100947.22
2023-08-08T03:12:30.936Z,100941.34
2023-08-08T03:13:43.798Z,100920.16
2023-08-08T03:14:50.304Z,100898.25
2023-08-08T03:15:58.726Z,100904.50
2023-08-08T03:17:03.704Z,100902.69
2023-08-08T03:18:12.148Z,100878.66
2023-08-08T03:19:17.042Z,100861.66
2023-08-08T03:20:24.978Z,100857.31
2023-08-08T03:21:30.185Z,100842.81
2023-08-08T03:22:38.481Z,100832.75
2023-08-08T03:23:46.716Z,100835.44
2023-08-08T03:24:54.317Z,100850.75
2023-08-08T03:25:59.308Z,100857.84
2023-08-08T03:27:08.072Z,100839.00
2023-08-08T03:28:13.615Z,100859.19
2023-08-08T03:29:23.967Z,100842.47
2023-08-08T03:30:29.318Z,100834.56
2023-08-08T03:31:36.970Z,100889.78
2023-08-08T03:32:44.685Z,100873.25
2023-08-08T03:33:52.532Z,100866.06
2023-08-08T03:34:57.427Z,100863.53
2023-08-08T03:36:06.942Z,100864.72
2023-08-08T03:37:14.430Z,100816.56
2023-08-08T03:38:19.612Z,100848.25
2023-08-08T03:39:27.309Z,100845.56
2023-08-08T03:40:33.055Z,100842.19
2023-08-08T03:41:41.454Z,100844.03
2023-08-08T03:42:46.301Z,100846.91
2023-08-08T03:43:54.029Z,100837.03
2023-08-08T03:45:01.847Z,100836.03
2023-08-08T03:46:13.433Z,100829.91
2023-08-08T03:47:20.624Z,100830.94
2023-08-08T03:48:29.721Z,100829.75
2023-08-08T03:49:35.140Z,100838.50
2023-08-08T03:50:42.805Z,100833.63
2023-08-08T03:51:47.798Z,100829.78
2023-08-08T03:52:55.385Z,100824.06
2023-08-08T03:54:00.827Z,100820.22
2023-08-08T03:55:09.673Z,100823.22
2023-08-08T03:56:16.420Z,100832.16
2023-08-08T03:57:24.932Z,100837.72
2023-08-08T03:58:29.966Z,100848.50
2023-08-08T03:59:37.572Z,100845.28
2023-08-08T04:00:48.018Z,100848.16
2023-08-08T04:01:55.571Z,100828.09
2023-08-08T04:03:00.738Z,100824.41
2023-08-08T04:04:08.728Z,100826.75
2023-08-08T04:05:14.039Z,100829.09
2023-08-08T04:06:21.644Z,100817.34
2023-08-08T04:07:26.597Z,100837.03
2023-08-08T04:08:34.117Z,100831.28
2023-08-08T04:09:39.097Z,100809.75
2023-08-08T04:10:46.668Z,100821.19
2023-08-08T04:11:51.720Z,100811.41
2023-08-08T04:12:59.349Z,100803.34
2023-08-08T04:14:04.171Z,100801.31
2023-08-08T04:15:12.656Z,100804.50
2023-08-08T04:16:20.834Z,100777.41
2023-08-08T04:17:28.868Z,100793.88
2023-08-08T04:18:33.720Z,100787.97
2023-08-08T04:19:41.309Z,100794.03
2023-08-08T04:20:47.636Z,100726.44
2023-08-08T04:21:55.188Z,100788.31
2023-08-08T04:23:00.108Z,100787.13
2023-08-08T04:24:09.523Z,100777.22
2023-08-08T04:25:15.029Z,100783.44
2023-08-08T04:26:22.557Z,100767.75
2023-08-08T04:27:27.385Z,100767.75
2023-08-08T04:28:34.966Z,100769.25
2023-08-08T04:29:39.989Z,100774.47
2023-08-08T04:30:44.802Z,100774.00
2023-08-08T04:31:55.056Z,100765.25
2023-08-08T04:33:00.002Z,100773.16
2023-08-08T04:34:08.767Z,100757.00
2023-08-08T04:35:13.801Z,100728.22
2023-08-08T04:36:21.368Z,100746.72
2023-08-08T04:37:26.222Z,100740.81
2023-08-08T04:38:33.722Z,100725.13
2023-08-08T04:39:38.653Z,100735.56
2023-08-08T04:40:46.542Z,100734.91
2023-08-08T04:41:51.938Z,100762.69
2023-08-08T04:42:59.467Z,100765.53
2023-08-08T04:44:04.456Z,100776.69
2023-08-08T04:45:13.025Z,100775.50
2023-08-08T04:46:17.987Z,100777.06
2023-08-08T04:47:28.242Z,100779.91
2023-08-08T04:48:34.383Z,100755.69
2023-08-08T04:49:43.933Z,100776.38
2023-08-08T04:50:49.930Z,100757.63
2023-08-08T04:51:57.880Z,100763.03
2023-08-08T04:53:03.397Z,100747.91
2023-08-08T04:54:10.856Z,100736.63
2023-08-08T04:55:15.819Z,100765.91
2023-08-08T04:56:23.394Z,100761.00
2023-08-08T04:57:28.178Z,100775.69
2023-08-08T04:58:36.388Z,100755.25
2023-08-08T04:59:41.350Z,100746.53
2023-08-08T05:00:49.880Z,100753.91
2023-08-08T05:01:54.787Z,100742.97
2023-08-08T05:03:05.540Z,100759.28
2023-08-08T05:04:12.313Z,100758.94
2023-08-08T05:05:19.902Z,100751.56
2023-08-08T05:06:24.796Z,100774.09
2023-08-08T05:07:32.935Z,100770.03
2023-08-08T05:08:37.826Z,100776.38
2023-08-08T05:09:45.449Z,100770.19
2023-08-08T05:10:50.239Z,100764.94
2023-08-08T05:11:58.458Z,100599.25
2023-08-08T05:13:04.938Z,100748.44
2023-08-08T05:14:12.472Z,100744.06
2023-08-08T05:15:17.458Z,100745.75
2023-08-08T05:16:26.400Z,100745.59
2023-08-08T05:17:35.005Z,100743.75
2023-08-08T05:18:46.019Z,100748.09
2023-08-08T05:19:50.870Z,100740.19
2023-08-08T05:20:58.382Z,100739.19
2023-08-08T05:22:04.326Z,100732.06
2023-08-08T05:23:11.938Z,100732.44
2023-08-08T05:24:16.749Z,100727.69
2023-08-08T05:25:24.255Z,100680.00
2023-08-08T05:26:29.169Z,100712.75
2023-08-08T05:27:36.669Z,100713.22
2023-08-08T05:28:41.882Z,100701.78
2023-08-08T05:29:49.456Z,100695.72
2023-08-08T05:30:54.744Z,100692.56
2023-08-08T05:32:02.708Z,100690.03
2023-08-08T05:33:08.170Z,100696.22
2023-08-08T05:34:18.487Z,100698.38
2023-08-08T05:35:23.326Z,100687.13
2023-08-08T05:36:30.896Z,100690.44
2023-08-08T05:37:35.771Z,100685.06
2023-08-08T05:38:43.411Z,100681.34
2023-08-08T05:39:48.228Z,100679.81
2023-08-08T05:40:55.821Z,100678.59
2023-08-08T05:42:00.637Z,100676.38
2023-08-08T05:43:08.575Z,100673.53
2023-08-08T05:44:13.368Z,100657.88
2023-08-08T05:45:20.973Z,100668.13
2023-08-08T05:46:26.170Z,100668.13
2023-08-08T05:47:33.702Z,100670.63
2023-08-08T05:48:38.632Z,100658.34
2023-08-08T05:49:49.338Z,100651.28
2023-08-08T05:50:54.777Z,100601.50
2023-08-08T05:52:02.934Z,100653.81
2023-08-08T05:53:08.376Z,100658.47
2023-08-08T05:54:16.644Z,100657.63
2023-08-08T05:55:21.693Z,100642.34
2023-08-08T05:56:29.187Z,100655.06
2023-08-08T05:57:34.107Z,100652.72
2023-08-08T05:58:41.805Z,100657.81
2023-08-08T05:59:46.769Z,100653.28
2023-08-08T06:00:54.783Z,100659.50
2023-08-08T06:02:00.969Z,100658.66
2023-08-08T06:03:09.478Z,100651.09
2023-08-08T06:04:14.496Z,100665.53
2023-08-08T06:05:27.779Z,100660.16
2023-08-08T06:06:32.638Z,100657.47
2023-08-08T06:07:40.143Z,100655.59
2023-08-08T06:08:44.997Z,100635.09
2023-08-08T06:09:52.565Z,100645.19
2023-08-08T06:10:57.511Z,100649.91
2023-08-08T06:12:05.115Z,100648.56
2023-08-08T06:13:10.002Z,100652.22
2023-08-08T06:14:18.715Z,100649.53
2023-08-08T06:15:23.738Z,100655.06
2023-08-08T06:16:31.592Z,100642.97
2023-08-08T06:17:36.441Z,100586.91
2023-08-08T06:18:43.929Z,100647.81
2023-08-08T06:19:48.963Z,100645.63
2023-08-08T06:20:59.173Z,100642.72
2023-08-08T06:22:04.987Z,100650.31
2023-08-08T06:23:12.545Z,100646.28
2023-08-08T06:24:17.386Z,100636.41
2023-08-08T06:25:25.209Z,100640.25
2023-08-08T06:26:30.040Z,100632.41
2023-08-08T06:27:37.536Z,100637.72
2023-08-08T06:28:43.083Z,100639.59
2023-08-08T06:29:50.644Z,100639.31
2023-08-08T06:30:55.491Z,100634.91
2023-08-08T06:32:03.448Z,100632.59
2023-08-08T06:33:08.461Z,100627.19
2023-08-08T06:34:16.984Z,100617.28
2023-08-08T06:35:21.757Z,100628.22
2023-08-08T06:36:32.030Z,100621.13
2023-08-08T06:37:36.823Z,100617.59
2023-08-08T06:38:44.669Z,100607.34
2023-08-08T06:39:49.506Z,100624.84
2023-08-08T06:40:57.909Z,100616.47
2023-08-08T06:42:03.066Z,100609.19
2023-08-08T06:43:27.936Z,100617.94
2023-08-08T06:44:35.842Z,100622.50
2023-08-08T06:45:44.251Z,100604.38
2023-08-08T06:46:49.110Z,100619.28
2023-08-08T06:47:56.728Z,100608.72
2023-08-08T06:49:03.069Z,100586.34
2023-08-08T06:50:11.834Z,100598.41
2023-08-08T06:51:16.681Z,100598.78
2023-08-08T06:52:26.972Z,100592.72
2023-08-08T06:53:31.801Z,100588.53
2023-08-08T06:54:39.499Z,100587.97
2023-08-08T06:55:44.424Z,100584.09
2023-08-08T06:56:51.974Z,100516.28
2023-08-08T06:57:56.819Z,100566.84
2023-08-08T06:59:04.360Z,100567.22
2023-08-08T07:00:10.434Z,100579.59
2023-08-08T07:01:18.146Z,100567.78
2023-08-08T07:02:23.146Z,100582.06
2023-08-08T07:03:30.918Z,100556.53
2023-08-08T07:04:35.820Z,100566.63
2023-08-08T07:05:43.775Z,100579.72
2023-08-08T07:06:48.575Z,100579.53
2023-08-08T07:08:00.567Z,100571.81
2023-08-08T07:09:05.672Z,100568.63
2023-08-08T07:10:14.519Z,100562.88
2023-08-08T07:11:19.279Z,100561.50
2023-08-08T07:12:27.269Z,100569.72
2023-08-08T07:13:32.220Z,100562.16
2023-08-08T07:14:39.813Z,100567.88
2023-08-08T07:15:45.537Z,100571.03
2023-08-08T07:16:53.544Z,100572.16
2023-08-08T07:17:58.371Z,100570.97
2023-08-08T07:19:06.456Z,100566.69
2023-08-08T07:20:15.470Z,100571.44
2023-08-08T07:21:22.982Z,100565.66
2023-08-08T07:22:27.968Z,100563.69
2023-08-08T07:23:38.470Z,100562.13
2023-08-08T07:24:43.253Z,100563.34
2023-08-08T07:25:51.862Z,100561.19
2023-08-08T07:26:57.091Z,100564.25
2023-08-08T07:28:04.647Z,100556.72
2023-08-08T07:29:09.529Z,100561.72
2023-08-08T07:30:18.232Z,100564.25
2023-08-08T07:31:25.001Z,100568.97
2023-08-08T07:32:33.756Z,100566.97
2023-08-08T07:33:38.873Z,100566.13
2023-08-08T07:34:46.341Z,100545.78
2023-08-08T07:35:51.160Z,100562.56
2023-08-08T07:36:59.220Z,100561.44
2023-08-08T07:38:04.096Z,100567.59
2023-08-08T07:39:14.342Z,100562.47
2023-08-08T07:40:21.598Z,100586.06
2023-08-08T07:41:29.186Z,100587.97
2023-08-08T07:42:34.027Z,100581.28
2023-08-08T07:44:46.429Z,100586.66
2023-08-08T07:45:54.010Z,100598.72
2023-08-08T07:46:58.803Z,100592.13
2023-08-08T07:48:03.759Z,100598.72
2023-08-08T07:49:11.366Z,100596.84
2023-08-08T07:50:17.619Z,100546.59
2023-08-08T07:51:25.454Z,100594.94
2023-08-08T07:52:30.282Z,100593.63
2023-08-08T07:53:37.801Z,100606.38
2023-08-08T07:54:45.314Z,100591.75
2023-08-08T07:55:53.401Z,100595.59
2023-08-08T07:56:58.223Z,100599.63
2023-08-08T07:58:05.779Z,100566.91
2023-08-08T07:59:11.823Z,100594.81
2023-08-08T08:00:20.826Z,100588.47
2023-08-08T08:01:25.643Z,100591.69
2023-08-08T08:02:32.161Z,100569.16
2023-08-08T08:03:39.868Z,100574.63
2023-08-08T08:04:45.338Z,100575.28
2023-08-08T08:05:53.011Z,100584.34
2023-08-08T08:06:57.789Z,100577.03
2023-08-08T08:08:05.309Z,100578.50
2023-08-08T08:09:10.177Z,100570.56
2023-08-08T08:10:20.533Z,100566.59
2023-08-08T08:11:26.298Z,100565.16
2023-08-08T08:12:35.788Z,100559.84
2023-08-08T08:13:40.562Z,100557.47
2023-08-08T08:14:48.011Z,100561.84
2023-08-08T08:15:52.924Z,100549.91
2023-08-08T08:17:01.119Z,100566.94
2023-08-08T08:18:06.478Z,100563.59
2023-08-08T08:19:14.239Z,100570.00
2023-08-08T08:20:19.077Z,100573.63
2023-08-08T08:21:26.628Z,100566.88
2023-08-08T08:22:31.511Z,100568.75
2023-08-08T08:23:39.056Z,100565.91
2023-08-08T08:24:43.869Z,100561.03
2023-08-08T08:25:54.070Z,100555.97
2023-08-08T08:26:58.883Z,100558.03
2023-08-08T08:28:06.402Z,100532.31
2023-08-08T08:29:11.242Z,100553.72
2023-08-08T08:30:20.096Z,100539.00
2023-08-08T08:31:25.015Z,100544.16
2023-08-08T08:32:32.636Z,100537.00
2023-08-08T08:33:37.593Z,100542.09
2023-08-08T08:34:46.064Z,100546.16
2023-08-08T08:35:50.911Z,100549.84
2023-08-08T08:36:58.764Z,100535.13
2023-08-08T08:38:04.160Z,100545.91
2023-08-08T08:39:11.750Z,100544.41
2023-08-08T08:40:17.045Z,100546.56
2023-08-08T08:41:32.877Z,100539.00
2023-08-08T08:42:39.453Z,100537.94
2023-08-08T08:43:47.771Z,100532.81
2023-08-08T08:44:53.848Z,100538.47
2023-08-08T08:46:07.181Z,100539.13
2023-08-08T08:47:17.243Z,100542.59
2023-08-08T08:48:27.327Z,100543.09
2023-08-08T08:49:33.904Z,100550.50
2023-08-08T08:50:41.556Z,100542.59
2023-08-08T08:51:47.098Z,100538.69
2023-08-08T08:52:57.289Z,100528.06
2023-08-08T08:54:02.106Z,100540.22
2023-08-08T08:55:12.462Z,100545.09
2023-08-08T08:56:18.600Z,100541.75
2023-08-08T08:57:29.801Z,100549.66
2023-08-08T08:58:34.666Z,100547.22
2023-08-08T08:59:42.362Z,100546.31
2023-08-08T09:00:48.871Z,100550.19
2023-08-08T09:01:57.302Z,100548.81
2023-08-08T09:03:02.417Z,100552.31
2023-08-08T09:04:13.672Z,100557.06
2023-08-08T09:05:23.829Z,100555.38
2023-08-08T09:06:33.370Z,100553.16
2023-08-08T09:07:39.551Z,100551.28
2023-08-08T09:08:47.086Z,100547.59
2023-08-08T09:09:51.956Z,100547.97
2023-08-08T09:10:59.521Z,100560.22
2023-08-08T09:12:06.498Z,100555.84
2023-08-08T09:13:17.427Z,100553.19
2023-08-08T09:14:24.709Z,100534.22
2023-08-08T09:15:36.280Z,100560.78
2023-08-08T09:16:41.291Z,100544.69
2023-08-08T09:17:49.871Z,100354.25
2023-08-08T09:18:55.934Z,100562.81
2023-08-08T09:20:03.533Z,100565.72
2023-08-08T09:21:10.294Z,100565.97
2023-08-08T09:22:20.124Z,100507.41
2023-08-08T09:23:25.254Z,100546.09
2023-08-08T09:24:33.236Z,100561.34
2023-08-08T09:25:38.530Z,100568.97
2023-08-08T09:26:46.850Z,100560.47
2023-08-08T09:27:53.083Z,100568.47
2023-08-08T09:30:10.780Z,100551.25
2023-08-08T09:31:18.361Z,100564.13
2023-08-08T09:32:23.259Z,100562.28
2023-08-08T09:33:34.785Z,100565.28
2023-08-08T09:34:39.596Z,100578.38
2023-08-08T09:35:47.250Z,100573.91
2023-08-08T09:36:52.167Z,100571.63
2023-08-08T09:37:57.082Z,100576.63
2023-08-08T09:39:05.064Z,100574.09
2023-08-08T09:40:13.124Z,100573.06
2023-08-08T09:41:20.880Z,100571.63
2023-08-08T09:42:26.380Z,100579.06
2023-08-08T09:43:34.318Z,100579.59
2023-08-08T09:44:41.887Z,100512.56
2023-08-08T09:45:49.732Z,100573.34
2023-08-08T09:46:57.881Z,100573.56
2023-08-08T09:48:06.076Z,100565.16
2023-08-08T09:49:13.604Z,100564.31
2023-08-08T09:50:21.422Z,100535.66
2023-08-08T09:51:27.779Z,100569.97
2023-08-08T09:52:35.659Z,100569.75
2023-08-08T09:53:42.638Z,100553.59
2023-08-08T09:54:52.141Z,100557.13
2023-08-08T09:55:58.776Z,100555.94
2023-08-08T09:57:06.489Z,100563.66
2023-08-08T09:58:11.519Z,100557.97
2023-08-08T09:59:21.730Z,100573.25
2023-08-08T10:00:32.169Z,100571.75
2023-08-08T10:01:40.666Z,100574.63
2023-08-08T10:02:47.089Z,100578.56
2023-08-08T10:03:57.331Z,100577.66
2023-08-08T10:05:03.644Z,100575.44
2023-08-08T10:06:11.102Z,100549.88
2023-08-08T10:07:16.772Z,100574.81
2023-08-08T10:08:25.301Z,100585.28
2023-08-08T10:09:30.830Z,100582.97
2023-08-08T10:10:39.203Z,100586.81
2023-08-08T10:11:46.187Z,100589.53
2023-08-08T10:12:54.675Z,100588.19
2023-08-08T10:14:02.194Z,100592.69
2023-08-08T10:15:10.029Z,100586.25
2023-08-08T10:16:23.405Z,100604.63
2023-08-08T10:17:28.443Z,100586.97
2023-08-08T10:18:36.274Z,100590.16
2023-08-08T10:19:41.262Z,100536.41
2023-08-08T10:20:52.137Z,100595.88
2023-08-08T10:22:01.041Z,100605.28
2023-08-08T10:23:10.076Z,100594.81
2023-08-08T10:24:15.247Z,100602.84
2023-08-08T10:25:29.920Z,100595.75
2023-08-08T10:26:35.281Z,100604.16
2023-08-08T10:27:43.257Z,100591.03
2023-08-08T10:28:59.799Z,100599.84
2023-08-08T10:30:12.280Z,100603.72
2023-08-08T10:31:23.657Z,100602.25
2023-08-08T10:32:31.174Z,100612.91
2023-08-08T10:33:44.989Z,100621.16
2023-08-08T10:34:52.800Z,100617.25
2023-08-08T10:36:01.520Z,100621.81
2023-08-08T10:37:10.391Z,100617.09
2023-08-08T10:38:16.878Z,100626.22
2023-08-08T10:39:25.990Z,100621.53
2023-08-08T10:40:36.310Z,100634.63
2023-08-08T10:41:51.714Z,100610.75
2023-08-08T10:42:57.978Z,100541.09
2023-08-08T10:44:05.452Z,100634.09
2023-08-08T10:45:14.668Z,100634.47
2023-08-08T10:46:32.073Z,100617.78
2023-08-08T10:47:38.954Z,100626.03
2023-08-08T10:48:57.144Z,100637.63
2023-08-08T10:50:09.325Z,100651.44
2023-08-08T10:51:21.194Z,100644.41
2023-08-08T10:52:26.132Z,100641.88
2023-08-08T10:53:35.212Z,100643.38
2023-08-08T10:54:40.225Z,100644.66
2023-08-08T10:55:50.944Z,100637.00
2023-08-08T10:56:57.689Z,100641.22
2023-08-08T10:58:11.367Z,100655.22
2023-08-08T10:59:18.618Z,100651.81
2023-08-08T11:00:31.265Z,100664.06
2023-08-08T11:01:39.685Z,100650.28
2023-08-08T11:02:47.458Z,100652.34
2023-08-08T11:03:53.181Z,100651.91
2023-08-08T11:05:02.659Z,100658.63
2023-08-08T11:06:09.215Z,100651.75
2023-08-08T11:07:20.427Z,100664.16
2023-08-08T11:08:27.073Z,100656.44
2023-08-08T11:09:34.632Z,100658.91
2023-08-08T11:10:41.027Z,100645.63
2023-08-08T11:11:50.063Z,100651.59
2023-08-08T11:13:00.682Z,100653.47
2023-08-08T11:14:16.315Z,100654.59
2023-08-08T11:15:21.358Z,100647.34
2023-08-08T11:16:30.319Z,100658.63
2023-08-08T11:17:38.590Z,100661.41
2023-08-08T11:18:48.269Z,100640.94
2023-08-08T11:19:53.919Z,100651.75
2023-08-08T11:21:09.042Z,100657.00
2023-08-08T11:22:24.700Z,100656.69
2023-08-08T11:23:32.182Z,100662.47
2023-08-08T11:24:38.099Z,100673.84
2023-08-08T11:27:12.317Z,100665.63
2023-08-08T11:28:20.234Z,100659.09
2023-08-08T11:29:25.525Z,100664.88
2023-08-08T11:30:35.065Z,100666.41
2023-08-08T11:31:40.655Z,100670.50
2023-08-08T11:34:01.687Z,100672.97
2023-08-08T11:35:10.799Z,100662.50
2023-08-08T11:36:16.724Z,100668.69
2023-08-08T11:37:24.995Z,100672.91
2023-08-08T11:38:30.190Z,100669.22
2023-08-08T11:39:38.077Z,100650.38
2023-08-08T11:40:43.480Z,100664.81
2023-08-08T11:41:52.230Z,100665.59
2023-08-08T11:42:58.702Z,100675.81
2023-08-08T11:44:07.589Z,100671.97
2023-08-08T11:45:14.397Z,100668.06
2023-08-08T11:46:22.367Z,100669.66
2023-08-08T11:47:28.035Z,100678.53
2023-08-08T11:48:39.016Z,100674.44
2023-08-08T11:49:44.698Z,100676.38
2023-08-08T11:50:52.176Z,100671.09
2023-08-08T11:51:58.118Z,100670.97
2023-08-08T11:53:07.114Z,100666.59
2023-08-08T11:54:12.117Z,100645.16
2023-08-08T11:55:22.963Z,100595.56
2023-08-08T11:56:27.778Z,100679.38
2023-08-08T11:57:38.269Z,100673.59
2023-08-08T11:58:43.432Z,100661.00
2023-08-08T11:59:53.335Z,100672.38
2023-08-08T12:00:59.803Z,100666.88
2023-08-08T12:02:07.567Z,100665.00
2023-08-08T12:03:13.045Z,100673.88
2023-08-08T12:04:27.871Z,100657.75
2023-08-08T12:05:38.555Z,100663.81
2023-08-08T12:06:47.336Z,100666.22
2023-08-08T12:07:52.565Z,100673.75
2023-08-08T12:09:00.488Z,100670.34
2023-08-08T12:10:09.258Z,100662.22
2023-08-08T12:11:25.412Z,100663.06
2023-08-08T12:12:33.150Z,100654.50
2023-08-08T12:13:44.280Z,100676.19
2023-08-08T12:14:52.136Z,100604.06
2023-08-08T12:16:16.850Z,100672.09
2023-08-08T12:17:24.446Z,100680.28
2023-08-08T12:18:32.217Z,100677.13
2023-08-08T12:19:39.896Z,100678.09
2023-08-08T12:20:47.389Z,100680.41
2023-08-08T12:21:52.786Z,100677.94
2023-08-08T12:23:00.838Z,100684.22
2023-08-08T12:24:06.019Z,100663.06
2023-08-08T12:25:14.542Z,100619.47
2023-08-08T12:26:21.276Z,100662.41
2023-08-08T12:27:28.922Z,100673.69
2023-08-08T12:28:34.136Z,100682.63
2023-08-08T12:29:42.323Z,100663.53
2023-08-08T12:30:47.184Z,100680.97
2023-08-08T12:31:54.724Z,100679.66
2023-08-08T12:32:59.790Z,100657.84
2023-08-08T12:34:09.569Z,100679.38
2023-08-08T12:35:18.303Z,100678.44
2023-08-08T12:36:26.220Z,100666.53
2023-08-08T12:37:31.065Z,100677.22
2023-08-08T12:38:38.601Z,100680.41
2023-08-08T12:39:43.704Z,100668.66
2023-08-08T12:40:51.338Z,100681.13
2023-08-08T12:41:56.192Z,100681.66
2023-08-08T12:43:03.894Z,100671.78
2023-08-08T12:44:09.864Z,100669.25
2023-08-08T12:45:17.774Z,100655.09
2023-08-08T12:46:22.650Z,100672.31
2023-08-08T12:47:31.242Z,100669.41
2023-08-08T12:48:36.139Z,100665.41
2023-08-08T12:49:44.682Z,100660.56
2023-08-08T12:50:52.197Z,100652.53
2023-08-08T12:52:00.256Z,100665.34
2023-08-08T12:53:05.993Z,100667.88
2023-08-08T12:54:14.507Z,100667.44
2023-08-08T12:55:20.350Z,100617.47
2023-08-08T12:56:28.129Z,100672.69